createdAt,value
2018-06-28T00:00:31.339Z,102513.83
2018-06-28T00:02:59.660Z,102514.44
2018-06-28T00:05:27.994Z,102506.81
2018-06-28T00:07:56.305Z,102511.70
2018-06-28T00:10:25.943Z,102509.19
2018-06-28T00:12:53.654Z,102502.88
2018-06-28T00:15:22.565Z,102504.73
2018-06-28T00:17:50.881Z,102510.68
2018-06-28T00:20:19.210Z,102509.08
2018-06-28T00:22:47.575Z,102510.14
2018-06-28T00:25:15.908Z,102512.27
2018-06-28T00:27:43.649Z,102509.88
2018-06-28T00:30:12.561Z,102510.41
2018-06-28T00:32:40.299Z,102509.38
2018-06-28T00:35:09.213Z,102508.25
2018-06-28T00:37:37.534Z,102499.84
2018-06-28T00:40:05.856Z,102494.22
2018-06-28T00:42:33.643Z,102494.59
2018-06-28T00:45:02.545Z,102502.36
2018-06-28T00:47:30.865Z,102500.45
2018-06-28T00:49:59.185Z,102497.07
2018-06-28T00:52:26.920Z,102493.02
2018-06-28T00:54:55.822Z,102491.92
2018-06-28T00:57:24.144Z,102490.18
2018-06-28T00:59:51.879Z,102490.73
2018-06-28T01:02:20.208Z,102487.09
2018-06-28T01:04:48.691Z,102484.84
2018-06-28T01:07:17.019Z,102481.89
2018-06-28T01:09:45.920Z,102478.32
2018-06-28T01:12:15.120Z,102481.45
2018-06-28T01:14:42.865Z,102474.66
2018-06-28T01:17:11.192Z,102473.31
2018-06-28T01:19:40.094Z,102471.86
2018-06-28T01:22:07.853Z,102462.52
2018-06-28T01:24:36.738Z,102463.43
2018-06-28T01:27:04.483Z,102464.97
2018-06-28T01:29:33.388Z,102461.25
2018-06-28T01:32:01.707Z,102458.09
2018-06-28T01:34:30.033Z,102456.63
2018-06-28T01:36:57.782Z,102461.23
2018-06-28T01:39:26.685Z,102454.66
2018-06-28T01:41:55.001Z,102456.80
2018-06-28T01:44:23.364Z,102455.06
2018-06-28T01:46:51.120Z,102454.82
2018-06-28T01:49:19.420Z,102457.40
2018-06-28T01:51:48.319Z,102454.73
2018-06-28T01:54:16.061Z,102455.91
2018-06-28T01:56:44.385Z,102456.53
2018-06-28T01:59:13.280Z,102458.06
2018-06-28T02:01:41.601Z,102458.66
2018-06-28T02:04:09.916Z,102451.70
2018-06-28T02:06:38.241Z,102454.47
2018-06-28T02:09:06.576Z,102448.34
2018-06-28T02:11:34.898Z,102447.69
2018-06-28T02:14:02.631Z,102448.86
2018-06-28T02:16:31.530Z,102444.91
2018-06-28T02:18:59.852Z,102445.27
2018-06-28T02:21:27.595Z,102441.22
2018-06-28T02:23:56.496Z,102436.48
2018-06-28T02:26:24.816Z,102435.23
2018-06-28T02:28:52.555Z,102435.67
2018-06-28T02:31:21.459Z,102437.80
2018-06-28T02:33:49.780Z,102435.78
2018-06-28T02:36:18.106Z,102434.75
2018-06-28T02:38:45.845Z,102439.16
2018-06-28T02:41:14.758Z,102435.19
2018-06-28T02:43:42.505Z,102440.05
2018-06-28T02:46:11.442Z,102441.84
2018-06-28T02:48:39.182Z,102441.79
2018-06-28T02:53:36.433Z,102442.44
2018-06-28T02:56:04.755Z,102437.73
2018-06-28T02:58:33.076Z,102437.48
2018-06-28T03:01:01.397Z,102437.92
2018-06-28T03:03:29.940Z,102437.16
2018-06-28T03:05:58.034Z,102442.72
2018-06-28T03:08:25.782Z,102440.09
2018-06-28T03:10:54.682Z,102444.23
2018-06-28T03:13:22.427Z,102443.60
2018-06-28T03:15:51.322Z,102445.05
2018-06-28T03:18:19.639Z,102445.53
2018-06-28T03:20:47.458Z,102439.30
2018-06-28T03:23:16.286Z,102434.72
2018-06-28T03:25:44.612Z,102431.70
2018-06-28T03:28:12.934Z,102429.02
2018-06-28T03:30:41.262Z,102431.47
2018-06-28T03:33:09.593Z,102423.85
2018-06-28T03:35:37.347Z,102426.61
2018-06-28T03:38:05.757Z,102429.27
2018-06-28T03:40:34.000Z,102429.34
2018-06-28T03:43:02.898Z,102429.11
2018-06-28T03:45:30.650Z,102430.41
2018-06-28T03:47:58.994Z,102430.41
2018-06-28T03:50:27.904Z,102430.25
2018-06-28T03:52:56.229Z,102428.22
2018-06-28T03:55:23.979Z,102427.22
2018-06-28T03:57:52.286Z,102430.09
2018-06-28T04:00:20.619Z,102430.22
2018-06-28T04:02:49.537Z,102427.44
2018-06-28T04:05:17.286Z,102425.41
2018-06-28T04:07:46.195Z,102422.78
2018-06-28T04:10:14.542Z,102422.44
2018-06-28T04:12:42.874Z,102424.27
2018-06-28T04:15:11.209Z,102424.44
2018-06-28T04:17:38.955Z,102423.18
2018-06-28T04:20:07.502Z,102420.98
2018-06-28T04:22:35.834Z,102419.55
2018-06-28T04:25:04.162Z,102418.45
2018-06-28T04:27:33.078Z,102416.19
2018-06-28T04:30:01.384Z,102415.33
2018-06-28T04:32:29.706Z,102412.45
2018-06-28T04:34:57.441Z,102410.55
2018-06-28T04:37:25.895Z,102401.95
2018-06-28T04:39:54.663Z,102407.07
2018-06-28T04:42:22.981Z,102402.59
2018-06-28T04:44:50.724Z,102405.70
2018-06-28T04:47:19.718Z,102400.00
2018-06-28T04:49:48.127Z,102394.25
2018-06-28T04:52:16.378Z,102393.94
2018-06-28T04:54:44.116Z,102395.28
2018-06-28T04:57:13.007Z,102389.30
2018-06-28T04:59:41.638Z,102390.41
2018-06-28T05:02:11.754Z,102388.20
2018-06-28T05:04:38.609Z,102390.36
2018-06-28T05:07:06.969Z,102390.63
2018-06-28T05:09:35.262Z,102390.05
2018-06-28T05:12:02.994Z,102385.66
2018-06-28T05:14:31.891Z,102390.38
2018-06-28T05:16:59.802Z,102393.00
2018-06-28T05:19:28.400Z,102385.34
2018-06-28T05:21:57.210Z,102384.92
2018-06-28T05:24:24.961Z,102381.58
2018-06-28T05:26:53.298Z,102382.57
2018-06-28T05:29:22.199Z,102386.80
2018-06-28T05:31:50.528Z,102386.92
2018-06-28T05:34:18.853Z,102387.03
2018-06-28T05:36:47.161Z,102392.48
2018-06-28T05:39:14.912Z,102389.13
2018-06-28T05:41:43.242Z,102388.44
2018-06-28T05:44:12.132Z,102384.19
2018-06-28T05:46:39.884Z,102385.95
2018-06-28T05:49:08.206Z,102383.93
2018-06-28T05:51:36.768Z,102385.61
2018-06-28T05:54:05.483Z,102380.16
2018-06-28T05:56:33.775Z,102375.30
2018-06-28T05:59:02.095Z,102372.91
2018-06-28T06:01:30.568Z,102371.33
2018-06-28T06:03:58.153Z,102365.22
2018-06-28T06:06:27.058Z,102366.32
2018-06-28T06:08:55.377Z,102371.41
2018-06-28T06:11:23.118Z,102370.34
2018-06-28T06:13:52.027Z,102370.16
2018-06-28T06:16:19.774Z,102370.88
2018-06-28T06:18:48.097Z,102373.50
2018-06-28T06:21:16.989Z,102367.06
2018-06-28T06:23:44.736Z,102366.58
2018-06-28T06:26:13.075Z,102367.95
2018-06-28T06:28:44.885Z,102358.89
2018-06-28T06:33:45.366Z,102367.55
2018-06-28T06:36:13.715Z,102358.92
2018-06-28T06:38:42.022Z,102356.48
2018-06-28T06:41:10.325Z,102353.91
2018-06-28T06:43:38.065Z,102352.29
2018-06-28T06:46:09.414Z,102350.89
2018-06-28T06:48:40.368Z,102341.98
2018-06-28T06:51:08.026Z,102345.58
2018-06-28T06:53:38.479Z,102346.50
2018-06-28T06:56:06.642Z,102342.14
2018-06-28T06:58:34.384Z,102339.94
2018-06-28T07:01:03.280Z,102336.14
2018-06-28T07:03:31.848Z,102329.92
2018-06-28T07:05:59.674Z,102330.09
2018-06-28T07:08:27.876Z,102329.09
2018-06-28T07:10:56.319Z,102330.97
2018-06-28T07:13:25.172Z,102324.55
2018-06-28T07:15:52.936Z,102326.14
2018-06-28T07:18:21.843Z,102328.15
2018-06-28T07:20:49.573Z,102326.25
2018-06-28T07:23:18.479Z,102324.50
2018-06-28T07:25:46.793Z,102320.20
2018-06-28T07:28:15.108Z,102316.72
2018-06-28T07:30:42.882Z,102317.42
2018-06-28T07:33:11.229Z,102314.55
2018-06-28T07:35:40.082Z,102309.75
2018-06-28T07:38:08.393Z,102310.26
2018-06-28T07:40:36.139Z,102305.47
2018-06-28T07:43:05.039Z,102310.82
2018-06-28T07:45:32.816Z,102307.12
2018-06-28T07:48:01.681Z,102306.83
2018-06-28T07:50:29.427Z,102308.19
2018-06-28T07:52:57.771Z,102305.30
2018-06-28T07:55:26.776Z,102305.84
2018-06-28T07:57:55.030Z,102300.48
2018-06-28T08:00:23.361Z,102298.07
2018-06-28T08:02:52.375Z,102297.64
2018-06-28T08:05:20.699Z,102299.41
2018-06-28T08:07:48.441Z,102297.20
2018-06-28T08:10:17.330Z,102297.16
2018-06-28T08:12:45.657Z,102292.53
2018-06-28T08:15:13.409Z,102285.69
2018-06-28T08:17:42.311Z,102295.43
2018-06-28T08:20:10.646Z,102292.13
2018-06-28T08:22:38.394Z,102293.55
2018-06-28T08:25:06.722Z,102291.89
2018-06-28T08:27:35.049Z,102285.09
2018-06-28T08:30:03.354Z,102290.80
2018-06-28T08:32:31.670Z,102291.45
2018-06-28T08:35:00.002Z,102292.12
2018-06-28T08:37:28.894Z,102289.06
2018-06-28T08:39:56.665Z,102288.14
2018-06-28T08:42:24.957Z,102289.47
2018-06-28T08:44:53.860Z,102289.03
2018-06-28T08:47:22.191Z,102285.95
2018-06-28T08:49:50.506Z,102287.67
2018-06-28T08:52:18.827Z,102288.80
2018-06-28T08:54:47.156Z,102290.73
2018-06-28T08:57:15.532Z,102287.51
2018-06-28T08:59:43.846Z,102286.31
2018-06-28T09:02:12.180Z,102288.64
2018-06-28T09:04:40.539Z,102286.30
2018-06-28T09:07:08.839Z,102276.95
2018-06-28T09:09:36.588Z,102265.12
2018-06-28T09:12:05.489Z,102260.98
2018-06-28T09:14:33.227Z,102265.22
2018-06-28T09:17:02.128Z,102266.72
2018-06-28T09:19:30.440Z,102266.63
2018-06-28T09:21:58.448Z,102265.45
2018-06-28T09:24:26.616Z,102267.52
2018-06-28T09:26:55.922Z,102260.05
2018-06-28T09:29:24.210Z,102263.98
2018-06-28T09:31:52.525Z,102258.13
2018-06-28T09:34:20.272Z,102256.45
2018-06-28T09:36:48.725Z,102244.47
2018-06-28T09:39:16.928Z,102248.23
2018-06-28T09:41:45.829Z,102242.77
2018-06-28T09:44:13.572Z,102241.41
2018-06-28T09:46:42.681Z,102234.69
2018-06-28T09:49:11.591Z,102232.65
2018-06-28T09:51:39.914Z,102231.36
2018-06-28T09:54:07.657Z,102239.89
2018-06-28T09:56:35.981Z,102236.18
2018-06-28T09:59:04.920Z,102237.09
2018-06-28T10:01:32.660Z,102229.39
2018-06-28T10:04:01.557Z,102226.84
2018-06-28T10:06:29.880Z,102217.77
2018-06-28T10:08:58.211Z,102216.39
2018-06-28T10:11:25.979Z,102211.91
2018-06-28T10:13:54.285Z,102207.45
2018-06-28T10:16:23.197Z,102207.45
2018-06-28T10:18:50.921Z,102193.36
2018-06-28T10:21:19.827Z,102190.68
2018-06-28T10:23:48.140Z,102185.44
2018-06-28T10:26:16.477Z,102188.55
2018-06-28T10:28:44.792Z,102181.44
2018-06-28T10:31:13.102Z,102175.33
2018-06-28T10:33:42.592Z,102174.61
2018-06-28T10:36:09.754Z,102174.50
2018-06-28T10:38:38.084Z,102169.52
2018-06-28T10:41:06.092Z,102167.39
2018-06-28T10:43:35.585Z,102163.19
2018-06-28T10:46:03.317Z,102162.66
2018-06-28T10:48:31.644Z,102159.49
2018-06-28T10:51:00.537Z,102164.33
2018-06-28T10:53:28.877Z,102156.02
2018-06-28T10:55:56.611Z,102155.45
2018-06-28T10:58:25.122Z,102154.04
2018-06-28T11:00:53.285Z,102153.52
2018-06-28T11:03:22.178Z,102151.60
2018-06-28T11:05:49.920Z,102150.97
2018-06-28T11:08:18.851Z,102152.92
2018-06-28T11:10:47.135Z,102153.16
2018-06-28T11:13:15.460Z,102151.20
2018-06-28T11:15:43.816Z,102147.36
2018-06-28T11:18:12.106Z,102137.38
2018-06-28T11:20:40.412Z,102134.52
2018-06-28T11:23:08.724Z,102136.76
2018-06-28T11:25:36.467Z,102136.39
2018-06-28T11:28:04.789Z,102132.86
2018-06-28T11:30:33.108Z,102129.68
2018-06-28T11:33:01.432Z,102121.87
2018-06-28T11:35:29.753Z,102118.96
2018-06-28T11:37:58.654Z,102114.42
2018-06-28T11:40:26.405Z,102115.86
2018-06-28T11:42:54.726Z,102112.02
2018-06-28T11:45:23.636Z,102112.78
2018-06-28T11:47:52.543Z,102103.66
2018-06-28T11:50:20.595Z,102108.98
2018-06-28T11:52:48.913Z,102111.80
2018-06-28T11:55:17.233Z,102105.91
2018-06-28T11:57:44.974Z,102108.84
2018-06-28T12:00:13.287Z,102109.24
2018-06-28T12:02:41.760Z,102109.25
2018-06-28T12:05:10.148Z,102105.41
2018-06-28T12:07:38.410Z,102097.35
2018-06-28T12:10:07.311Z,102100.38
2018-06-28T12:12:35.873Z,102102.03
2018-06-28T12:15:03.972Z,102096.25
2018-06-28T12:17:32.532Z,102095.91
2018-06-28T12:20:00.622Z,102089.37
2018-06-28T12:24:57.267Z,102078.58
2018-06-28T12:27:25.590Z,102080.89
2018-06-28T12:29:53.905Z,102079.19
2018-06-28T12:32:22.556Z,102071.38
2018-06-28T12:34:50.864Z,102073.53
2018-06-28T12:37:18.975Z,102072.12
2018-06-28T12:39:47.863Z,102067.40
2018-06-28T12:42:15.610Z,102062.41
2018-06-28T12:44:47.157Z,102059.25
2018-06-28T12:47:27.425Z,102066.55
2018-06-28T12:49:55.939Z,102063.61
2018-06-28T12:52:36.279Z,102065.49
2018-06-28T12:55:04.026Z,102061.88
2018-06-28T12:57:34.255Z,102056.96
2018-06-28T13:00:02.596Z,102058.61
2018-06-28T13:02:32.019Z,102053.84
2018-06-28T13:05:00.345Z,102046.47
2018-06-28T13:07:30.057Z,102043.83
2018-06-28T13:10:05.355Z,102041.39
2018-06-28T13:12:30.705Z,102038.88
2018-06-28T13:14:58.446Z,102035.23
2018-06-28T13:17:26.770Z,102036.64
2018-06-28T13:19:55.710Z,102031.97
2018-06-28T13:22:32.089Z,102030.91
2018-06-28T13:25:00.430Z,102027.16
2018-06-28T13:27:29.028Z,102024.78
2018-06-28T13:29:57.926Z,102024.39
2018-06-28T13:32:26.246Z,102020.83
2018-06-28T13:34:54.606Z,102022.72
2018-06-28T13:37:23.621Z,102021.40
2018-06-28T13:39:51.942Z,102014.16
2018-06-28T13:42:20.452Z,102014.32
2018-06-28T13:44:48.595Z,102008.28
2018-06-28T13:47:19.117Z,102005.70
2018-06-28T13:49:47.442Z,102000.46
2018-06-28T13:52:15.816Z,102002.19
2018-06-28T13:54:44.088Z,102000.08
2018-06-28T13:57:11.980Z,101997.78
2018-06-28T13:59:40.737Z,101994.41
2018-06-28T14:02:08.473Z,101988.86
2018-06-28T14:04:37.370Z,101990.33
2018-06-28T14:07:05.623Z,101992.93
2018-06-28T14:09:34.471Z,101987.91
2018-06-28T14:12:02.212Z,101986.49
2018-06-28T14:14:31.110Z,101982.45
2018-06-28T14:16:58.858Z,101979.66
2018-06-28T14:19:27.766Z,101975.95
2018-06-28T14:21:56.089Z,101973.02
2018-06-28T14:24:24.396Z,101972.73
2018-06-28T14:26:52.148Z,101969.78
2018-06-28T14:29:21.042Z,101967.50
2018-06-28T14:31:48.784Z,101969.81
2018-06-28T14:34:17.697Z,101969.35
2018-06-28T14:36:46.024Z,101965.26
2018-06-28T14:39:14.569Z,101961.63
2018-06-28T14:41:42.667Z,101962.49
2018-06-28T14:44:10.403Z,101956.95
2018-06-28T14:46:39.543Z,101955.13
2018-06-28T14:49:07.069Z,101948.56
2018-06-28T14:51:36.034Z,101949.56
2018-06-28T14:54:04.350Z,101943.17
2018-06-28T14:56:32.102Z,101948.66
2018-06-28T14:59:00.433Z,101949.72
2018-06-28T15:01:29.334Z,101946.06
2018-06-28T15:03:57.654Z,101943.69
2018-06-28T15:06:25.980Z,101941.80
2018-06-28T15:08:55.208Z,101937.03
2018-06-28T15:11:23.534Z,101936.79
2018-06-28T15:13:51.281Z,101939.30
2018-06-28T15:16:19.599Z,101932.48
2018-06-28T15:18:47.925Z,101930.99
2018-06-28T15:21:16.842Z,101933.11
2018-06-28T15:23:45.167Z,101935.38
2018-06-28T15:26:12.898Z,101937.69
2018-06-28T15:28:41.219Z,101929.52
2018-06-28T15:31:09.550Z,101930.28
2018-06-28T15:33:37.869Z,101932.97
2018-06-28T15:36:06.191Z,101936.28
2018-06-28T15:38:34.542Z,101932.69
2018-06-28T15:41:03.410Z,101929.38
2018-06-28T15:43:31.730Z,101929.59
2018-06-28T15:46:00.051Z,101930.70
2018-06-28T15:48:28.385Z,101929.03
2018-06-28T15:50:56.698Z,101917.47
2018-06-28T15:53:25.026Z,101916.52
2018-06-28T15:55:53.422Z,101917.33
2018-06-28T15:58:21.226Z,101909.44
2018-06-28T16:00:50.144Z,101906.25
2018-06-28T16:03:18.686Z,101898.99
2018-06-28T16:05:47.108Z,101897.13
2018-06-28T16:08:15.435Z,101896.28
2018-06-28T16:10:43.836Z,101893.76
2018-06-28T16:13:11.615Z,101892.79
2018-06-28T16:15:40.739Z,101888.14
2018-06-28T16:18:08.457Z,101882.19
2018-06-28T16:20:37.389Z,101875.09
2018-06-28T16:23:05.720Z,101872.45
2018-06-28T16:25:33.505Z,101867.57
2018-06-28T16:28:02.503Z,101862.88
2018-06-28T16:30:30.823Z,101862.49
2018-06-28T16:32:59.503Z,101864.91
2018-06-28T16:35:27.880Z,101861.68
2018-06-28T16:37:57.502Z,101854.98
2018-06-28T16:40:26.084Z,101851.20
2018-06-28T16:42:54.475Z,101845.28
2018-06-28T16:45:22.806Z,101838.95
2018-06-28T16:47:51.115Z,101835.33
2018-06-28T16:50:21.044Z,101828.66
2018-06-28T16:52:49.488Z,101822.38
2018-06-28T16:55:18.486Z,101824.44
2018-06-28T16:57:47.125Z,101825.41
2018-06-28T17:00:17.705Z,101824.35
2018-06-28T17:02:45.450Z,101825.50
2018-06-28T17:05:14.469Z,101827.16
2018-06-28T17:07:43.004Z,101830.34
2018-06-28T17:10:18.698Z,101827.78
2018-06-28T17:12:49.568Z,101824.28
2018-06-28T17:15:20.672Z,101827.25
2018-06-28T17:17:49.000Z,101824.46
2018-06-28T17:20:17.599Z,101819.41
2018-06-28T17:22:45.725Z,101817.22
2018-06-28T17:25:14.071Z,101822.03
2018-06-28T17:27:41.875Z,101823.94
2018-06-28T17:30:10.777Z,101820.86
2018-06-28T17:32:39.824Z,101815.39
2018-06-28T17:35:07.477Z,101806.30
2018-06-28T17:37:35.803Z,101807.92
2018-06-28T17:40:04.125Z,101807.95
2018-06-28T17:42:31.908Z,101804.70
2018-06-28T17:45:00.766Z,101803.73
2018-06-28T17:47:29.373Z,101799.13
2018-06-28T17:50:00.934Z,101801.18
2018-06-28T17:52:29.272Z,101797.27
2018-06-28T17:54:57.610Z,101784.25
2018-06-28T17:57:25.937Z,101786.61
2018-06-28T17:59:53.907Z,101788.65
2018-06-28T18:02:27.201Z,101787.84
2018-06-28T18:04:51.161Z,101784.88
2018-06-28T18:07:19.448Z,101778.91
2018-06-28T18:09:47.763Z,101776.37
2018-06-28T18:12:16.086Z,101773.41
2018-06-28T18:14:44.457Z,101773.10
2018-06-28T18:17:12.757Z,101775.87
2018-06-28T18:19:40.504Z,101775.99
2018-06-28T18:22:08.815Z,101774.09
2018-06-28T18:24:37.722Z,101765.68
2018-06-28T18:27:06.035Z,101759.61
2018-06-28T18:29:34.354Z,101753.38
2018-06-28T18:32:02.941Z,101755.30
2018-06-28T18:34:32.566Z,101751.38
2018-06-28T18:37:00.885Z,101749.23
2018-06-28T18:39:29.785Z,101748.86
2018-06-28T18:41:58.098Z,101745.13
2018-06-28T18:44:26.425Z,101739.04
2018-06-28T18:46:54.737Z,101737.33
2018-06-28T18:49:23.079Z,101734.14
2018-06-28T18:51:50.814Z,101735.98
2018-06-28T18:54:19.711Z,101733.48
2018-06-28T18:56:48.171Z,101740.59
2018-06-28T18:59:16.609Z,101733.63
2018-06-28T19:01:45.000Z,101731.47
2018-06-28T19:04:13.264Z,101729.30
2018-06-28T19:06:41.013Z,101730.99
2018-06-28T19:09:09.920Z,101733.76
2018-06-28T19:11:38.510Z,101731.84
2018-06-28T19:14:06.288Z,101732.91
2018-06-28T19:16:40.841Z,101732.91
2018-06-28T19:19:09.214Z,101732.42
2018-06-28T19:21:37.525Z,101732.02
2018-06-28T19:24:05.832Z,101734.02
2018-06-28T19:26:33.579Z,101732.03
2018-06-28T19:29:02.594Z,101728.23
2018-06-28T19:31:31.801Z,101728.55
2018-06-28T19:34:00.111Z,101726.37
2018-06-28T19:36:46.274Z,101725.09
2018-06-28T19:39:14.625Z,101723.83
2018-06-28T19:41:47.357Z,101720.97
2018-06-28T19:44:15.712Z,101716.64
2018-06-28T19:46:44.285Z,101711.00
2018-06-28T19:49:13.194Z,101713.12
2018-06-28T19:51:40.940Z,101710.34
2018-06-28T19:54:15.285Z,101710.34
2018-06-28T19:56:43.195Z,101704.28
2018-06-28T19:59:11.541Z,101704.18
2018-06-28T20:01:40.445Z,101704.45
2018-06-28T20:04:09.673Z,101695.81
2018-06-28T20:06:38.005Z,101693.12
2018-06-28T20:09:06.319Z,101688.59
2018-06-28T20:11:34.647Z,101683.58
2018-06-28T20:14:11.901Z,101686.41
2018-06-28T20:16:42.722Z,101686.53
2018-06-28T20:19:13.477Z,101683.81
2018-06-28T20:21:41.723Z,101681.70
2018-06-28T20:24:10.082Z,101683.56
2018-06-28T20:26:38.408Z,101685.16
2018-06-28T20:29:06.728Z,101681.01
2018-06-28T20:31:40.761Z,101678.84
2018-06-28T20:34:09.100Z,101678.72
2018-06-28T20:36:37.427Z,101682.98
2018-06-28T20:39:05.191Z,101681.53
2018-06-28T20:41:33.513Z,101677.41
2018-06-28T20:44:08.878Z,101671.70
2018-06-28T20:46:43.106Z,101666.69
2018-06-28T20:49:10.846Z,101677.22
2018-06-28T20:51:39.969Z,101676.42
2018-06-28T20:54:07.504Z,101671.53
2018-06-28T20:56:36.409Z,101670.38
2018-06-28T20:59:04.221Z,101668.98
2018-06-28T21:01:33.062Z,101662.69
2018-06-28T21:04:05.941Z,101655.98
2018-06-28T21:06:33.588Z,101656.53
2018-06-28T21:09:01.948Z,101655.20
2018-06-28T21:11:29.688Z,101648.20
2018-06-28T21:13:58.085Z,101657.68
2018-06-28T21:16:28.933Z,101660.73
2018-06-28T21:19:06.061Z,101664.20
2018-06-28T21:21:34.675Z,101669.91
2018-06-28T21:24:07.155Z,101663.96
2018-06-28T21:26:35.668Z,101655.98
2018-06-28T21:29:04.009Z,101662.20
2018-06-28T21:34:00.947Z,101667.16
2018-06-28T21:36:29.145Z,101668.44
2018-06-28T21:38:56.899Z,101666.14
2018-06-28T21:41:25.194Z,101666.57
2018-06-28T21:43:54.445Z,101665.94
2018-06-28T21:46:22.785Z,101662.34
2018-06-28T21:48:51.123Z,101650.95
2018-06-28T21:51:19.205Z,101650.61
2018-06-28T21:53:48.151Z,101642.56
2018-06-28T21:56:16.835Z,101641.18
2018-06-28T21:58:45.174Z,101645.14
2018-06-28T22:01:13.491Z,101643.07
2018-06-28T22:03:42.875Z,101642.25
2018-06-28T22:06:10.865Z,101637.34
2018-06-28T22:08:44.190Z,101632.58
2018-06-28T22:11:11.238Z,101629.58
2018-06-28T22:13:40.247Z,101631.17
2018-06-28T22:16:07.920Z,101635.98
2018-06-28T22:18:36.826Z,101633.95
2018-06-28T22:21:04.608Z,101628.92
2018-06-28T22:23:33.504Z,101625.12
2018-06-28T22:26:03.757Z,101622.55
2018-06-28T22:28:31.786Z,101627.29
2018-06-28T22:31:01.329Z,101627.06
2018-06-28T22:33:29.644Z,101629.59
2018-06-28T22:35:57.382Z,101631.50
2018-06-28T22:38:26.281Z,101633.72
2018-06-28T22:40:54.602Z,101636.66
2018-06-28T22:43:23.027Z,101634.37
2018-06-28T22:45:50.719Z,101626.02
2018-06-28T22:48:21.672Z,101629.19
2018-06-28T22:50:50.112Z,101626.45
2018-06-28T22:53:18.420Z,101626.20
2018-06-28T22:55:46.736Z,101625.73
2018-06-28T22:58:14.761Z,101624.22
2018-06-28T23:00:43.668Z,101619.30
2018-06-28T23:03:11.976Z,101610.53
2018-06-28T23:05:40.309Z,101604.39
2018-06-28T23:08:08.628Z,101600.95
2018-06-28T23:10:36.367Z,101601.23
2018-06-28T23:13:05.300Z,101599.44
2018-06-28T23:15:33.618Z,101599.30
2018-06-28T23:18:01.939Z,101591.25
2018-06-28T23:20:30.260Z,101589.98
2018-06-28T23:22:58.028Z,101592.27
2018-06-28T23:25:26.911Z,101589.41
2018-06-28T23:27:54.656Z,101585.42
2018-06-28T23:30:23.560Z,101587.19
2018-06-28T23:32:51.312Z,101583.03
2018-06-28T23:35:19.631Z,101578.38
2018-06-28T23:37:47.950Z,101579.05
2018-06-28T23:40:16.853Z,101571.50
2018-06-28T23:42:45.194Z,101568.58
2018-06-28T23:45:13.536Z,101563.08
2018-06-28T23:47:41.908Z,101555.28
2018-06-28T23:50:10.181Z,101548.22
2018-06-28T23:52:37.932Z,101548.32
2018-06-28T23:55:06.835Z,101551.75
2018-06-28T23:57:35.155Z,101545.25
